Time;durP1;ratioP1;P1;durP2;ratioP2;P2;SDS_P1;SDS_P2;PMS_P1;PMS_P2;Temp;Humidity;BMP_temperature;BMP_pressure;BME280_temperature;BME280_humidity;BME280_pressure;Samples;Min_cycle;Max_cycle;Signal;HPM_P1;HPM_P2
2021/03/28 00:00:00;;;;;;;8.57;4.13;;;3.20;97.30;;;;;;5038512;28;20418;-90
2021/03/28 00:02:32;;;;;;;5.67;3.70;;;3.20;97.30;;;;;;5038962;28;20414;-90
2021/03/28 00:05:06;;;;;;;6.20;4.13;;;3.20;97.30;;;;;;5038357;28;20509;-90
2021/03/28 00:07:50;;;;;;;6.63;3.87;;;3.20;97.30;;;;;;5037480;28;20967;-90
2021/03/28 00:10:42;;;;;;;6.70;4.00;;;3.20;97.30;;;;;;5038098;28;20432;-90
2021/03/28 00:32:39;;;;;;;8.90;5.27;;;3.00;97.30;;;;;;6053099;23;20414;-92
2021/03/28 00:44:59;;;;;;;10.90;5.37;;;3.00;97.30;;;;;;4973296;28;20815;-91
2021/03/28 00:47:29;;;;;;;7.27;4.67;;;3.00;97.30;;;;;;4937142;29;20611;-91
2021/03/28 00:50:09;;;;;;;6.13;4.27;;;3.00;97.30;;;;;;4983673;23;20964;-84
2021/03/28 00:52:50;;;;;;;8.13;4.73;;;2.90;97.30;;;;;;5070335;28;20402;-84
2021/03/28 00:55:30;;;;;;;7.93;3.97;;;2.90;97.30;;;;;;5051334;28;20398;-85
2021/03/28 00:58:05;;;;;;;10.63;4.03;;;2.80;97.30;;;;;;5052379;28;20741;-84
2021/03/28 01:00:59;;;;;;;16.80;4.80;;;2.80;97.30;;;;;;5042961;28;20971;-84
2021/03/28 01:03:57;;;;;;;6.07;4.10;;;2.80;97.30;;;;;;5047945;28;20993;-84
2021/03/28 01:06:34;;;;;;;9.00;4.10;;;2.80;97.30;;;;;;5032443;28;20926;-84
2021/03/28 01:09:37;;;;;;;6.73;4.87;;;2.70;97.30;;;;;;5031969;28;20457;-84
2021/03/28 01:12:26;;;;;;;7.37;4.23;;;2.70;97.30;;;;;;5032510;28;20879;-84
2021/03/28 01:15:21;;;;;;;8.20;5.27;;;2.70;97.30;;;;;;5030346;28;20419;-84
2021/03/28 01:17:59;;;;;;;7.37;4.37;;;2.70;97.30;;;;;;5030893;28;20395;-86
2021/03/28 01:20:37;;;;;;;6.23;4.10;;;2.60;97.30;;;;;;5047052;28;20939;-84
2021/03/28 01:23:21;;;;;;;9.87;4.53;;;2.60;97.30;;;;;;5047602;28;20425;-85
2021/03/28 01:26:04;;;;;;;6.60;4.53;;;2.50;97.30;;;;;;5046228;28;20457;-84
2021/03/28 01:28:41;;;;;;;8.20;4.33;;;2.40;97.30;;;;;;5045626;28;20450;-86
2021/03/28 01:31:28;;;;;;;6.07;4.37;;;2.40;97.30;;;;;;5047158;28;21009;-84
2021/03/28 01:34:09;;;;;;;8.53;5.00;;;2.40;97.30;;;;;;5046815;28;20411;-84
2021/03/28 01:36:37;;;;;;;10.10;5.00;;;2.40;97.30;;;;;;5046739;28;20414;-84
2021/03/28 01:39:26;;;;;;;8.13;4.77;;;2.40;97.30;;;;;;5046185;28;20970;-85
2021/03/28 01:41:57;;;;;;;6.73;4.33;;;2.30;97.30;;;;;;5046077;28;20435;-84
2021/03/28 01:44:35;;;;;;;6.20;4.80;;;2.30;97.30;;;;;;5046106;28;20408;-85
2021/03/28 01:47:18;;;;;;;8.83;4.87;;;2.30;97.30;;;;;;5054257;28;20410;-84
2021/03/28 01:50:21;;;;;;;7.80;4.43;;;2.30;97.30;;;;;;5032294;28;20458;-84
2021/03/28 01:53:00;;;;;;;8.17;4.00;;;2.20;97.30;;;;;;5049546;28;20428;-84
2021/03/28 01:56:00;;;;;;;7.10;4.73;;;2.20;97.30;;;;;;5033145;28;20413;-84
2021/03/28 01:58:51;;;;;;;8.10;3.90;;;2.20;97.30;;;;;;5033230;28;20937;-85
2021/03/28 02:01:35;;;;;;;5.27;4.00;;;2.20;97.30;;;;;;5031158;28;20445;-85
2021/03/28 02:04:22;;;;;;;6.20;4.00;;;2.20;97.30;;;;;;5032530;28;20434;-84
2021/03/28 02:06:51;;;;;;;12.90;4.63;;;2.20;97.30;;;;;;5032441;28;20414;-84
2021/03/28 02:09:55;;;;;;;6.10;3.87;;;2.20;97.30;;;;;;5032938;28;20966;-85
2021/03/28 02:12:31;;;;;;;8.37;4.47;;;2.20;97.30;;;;;;5050904;28;20424;-84
2021/03/28 02:15:23;;;;;;;5.63;4.00;;;2.20;97.30;;;;;;5035636;28;20972;-86
2021/03/28 02:18:07;;;;;;;9.80;4.20;;;2.20;97.30;;;;;;5033920;28;20425;-84
2021/03/28 02:20:38;;;;;;;6.50;3.80;;;2.20;97.30;;;;;;5050404;28;20533;-85
2021/03/28 02:23:13;;;;;;;8.60;5.13;;;2.10;97.30;;;;;;5034295;28;20416;-84
2021/03/28 02:26:07;;;;;;;9.30;4.47;;;2.10;97.30;;;;;;5052255;28;20393;-84
2021/03/28 02:28:50;;;;;;;8.33;4.83;;;2.10;97.30;;;;;;5034351;28;21004;-85
2021/03/28 02:31:45;;;;;;;8.03;4.00;;;2.00;97.30;;;;;;5053602;28;20441;-84
2021/03/28 02:34:33;;;;;;;4.33;3.60;;;2.00;97.30;;;;;;5038116;28;20436;-84
2021/03/28 02:37:14;;;;;;;6.07;3.80;;;2.00;97.30;;;;;;5038083;28;20445;-84
2021/03/28 02:40:12;;;;;;;6.60;4.47;;;2.00;97.30;;;;;;5056195;28;20442;-85
2021/03/28 02:42:57;;;;;;;7.67;3.90;;;1.90;97.30;;;;;;4998568;28;20425;-82
2021/03/28 02:45:48;;;;;;;6.50;4.40;;;1.90;97.30;;;;;;5037854;28;20430;-85
2021/03/28 02:48:19;;;;;;;13.23;4.70;;;1.80;97.30;;;;;;5019667;28;20841;-86
2021/03/28 02:51:32;;;;;;;6.10;3.93;;;1.90;97.30;;;;;;5017968;28;20462;-84
2021/03/28 02:54:29;;;;;;;7.60;4.37;;;1.90;97.30;;;;;;5023208;28;20437;-84
2021/03/28 02:56:58;;;;;;;10.30;4.77;;;1.90;97.30;;;;;;5018448;28;20419;-84
2021/03/28 02:59:39;;;;;;;7.90;4.03;;;2.00;97.30;;;;;;5018716;28;20455;-84
2021/03/28 03:02:22;;;;;;;7.73;4.37;;;2.00;97.30;;;;;;5018197;28;20415;-84
2021/03/28 03:05:26;;;;;;;7.90;4.30;;;2.00;97.30;;;;;;5018594;28;20418;-82
2021/03/28 03:08:08;;;;;;;12.67;3.97;;;2.00;97.30;;;;;;5017329;28;20459;-84
2021/03/28 03:11:23;;;;;;;9.77;4.50;;;2.00;97.30;;;;;;5035983;28;20464;-83
2021/03/28 03:14:13;;;;;;;11.00;4.50;;;2.00;97.30;;;;;;5012764;28;20430;-84
2021/03/28 03:16:57;;;;;;;7.70;4.57;;;2.10;97.30;;;;;;5036090;28;20438;-83
2021/03/28 03:19:54;;;;;;;8.40;3.97;;;2.00;97.30;;;;;;5018243;28;20423;-84
2021/03/28 03:22:48;;;;;;;7.80;4.20;;;2.00;97.30;;;;;;5035664;28;20412;-84
2021/03/28 03:25:43;;;;;;;6.17;4.00;;;2.00;97.30;;;;;;5035531;28;20899;-84
2021/03/28 03:28:33;;;;;;;7.60;4.60;;;2.00;97.30;;;;;;5017669;28;20451;-84
2021/03/28 03:31:27;;;;;;;7.63;4.33;;;2.00;97.30;;;;;;5017872;28;20458;-83
2021/03/28 03:34:28;;;;;;;5.23;3.90;;;2.00;97.30;;;;;;5017309;28;20419;-83
2021/03/28 03:37:09;;;;;;;10.33;4.80;;;2.00;97.30;;;;;;5017874;28;20411;-84
2021/03/28 03:39:52;;;;;;;7.13;4.03;;;2.00;97.30;;;;;;5035643;28;20904;-83
2021/03/28 03:42:27;;;;;;;12.50;4.83;;;2.00;97.30;;;;;;5017117;28;20934;-80
2021/03/28 03:45:23;;;;;;;4.97;3.73;;;2.00;97.30;;;;;;5018200;28;20429;-84
2021/03/28 03:48:11;;;;;;;9.07;4.20;;;2.00;97.30;;;;;;5018018;28;20450;-83
2021/03/28 03:50:57;;;;;;;7.80;4.20;;;2.00;97.30;;;;;;5035314;28;20462;-84
2021/03/28 03:53:46;;;;;;;7.20;4.80;;;2.00;97.30;;;;;;5017491;28;20399;-84
2021/03/28 03:56:18;;;;;;;8.93;5.00;;;2.00;97.30;;;;;;5017812;28;20798;-83
2021/03/28 03:59:01;;;;;;;8.03;3.90;;;2.00;97.30;;;;;;5017713;28;21154;-84
2021/03/28 04:01:38;;;;;;;9.73;4.67;;;2.00;97.30;;;;;;5035141;28;20982;-86
2021/03/28 04:04:17;;;;;;;6.03;4.03;;;2.00;97.30;;;;;;5017583;28;20524;-84
2021/03/28 04:06:58;;;;;;;9.17;5.13;;;2.00;97.30;;;;;;5017170;28;20461;-83
2021/03/28 04:09:51;;;;;;;6.63;4.30;;;2.00;97.30;;;;;;5017533;28;20509;-85
2021/03/28 04:12:22;;;;;;;8.33;3.67;;;2.00;97.30;;;;;;5017740;28;20422;-84
2021/03/28 04:15:04;;;;;;;6.47;4.13;;;2.00;97.30;;;;;;5017534;28;20475;-84
2021/03/28 04:17:32;;;;;;;10.00;4.50;;;2.00;97.30;;;;;;5017417;28;20419;-83
2021/03/28 04:20:23;;;;;;;9.93;4.33;;;2.00;97.30;;;;;;5035056;28;20876;-84
2021/03/28 04:23:07;;;;;;;10.00;4.63;;;2.00;97.30;;;;;;5017326;28;20415;-83
2021/03/28 04:25:38;;;;;;;7.53;4.60;;;2.00;97.30;;;;;;5017273;28;20419;-84
2021/03/28 04:28:17;;;;;;;10.37;4.70;;;2.00;97.30;;;;;;5017122;28;20512;-84
2021/03/28 04:30:52;;;;;;;6.03;3.90;;;2.00;97.30;;;;;;5017207;28;20438;-84
2021/03/28 04:33:37;;;;;;;8.80;5.03;;;1.90;97.30;;;;;;5017350;28;20430;-84
2021/03/28 04:36:18;;;;;;;10.70;5.17;;;1.90;97.30;;;;;;5003667;28;20448;-84
2021/03/28 04:38:53;;;;;;;7.80;4.30;;;1.90;97.30;;;;;;5016822;28;20453;-81
2021/03/28 04:41:40;;;;;;;10.20;5.40;;;1.80;97.30;;;;;;5016479;28;20435;-83
2021/03/28 04:44:53;;;;;;;9.73;5.53;;;1.80;97.30;;;;;;5034166;28;20506;-83
2021/03/28 04:47:55;;;;;;;9.50;4.43;;;1.80;97.30;;;;;;4957605;28;20423;-83
2021/03/28 04:50:57;;;;;;;12.13;5.10;;;1.80;97.30;;;;;;4979746;28;20462;-82
2021/03/28 04:53:56;;;;;;;8.47;4.80;;;1.70;97.30;;;;;;5016901;28;20450;-84
2021/03/28 04:56:40;;;;;;;6.40;4.57;;;1.60;97.30;;;;;;5016639;28;20414;-83
2021/03/28 04:59:09;;;;;;;11.87;4.50;;;1.60;97.30;;;;;;5016153;28;20426;-81
2021/03/28 05:02:04;;;;;;;11.90;4.87;;;1.50;97.30;;;;;;5039903;28;20497;-83
2021/03/28 05:04:49;;;;;;;7.80;5.00;;;1.50;97.30;;;;;;5015907;28;20435;-84
2021/03/28 05:07:20;;;;;;;7.23;5.20;;;1.50;97.30;;;;;;5015257;28;20422;-84
2021/03/28 05:10:07;;;;;;;8.97;5.13;;;1.60;97.30;;;;;;5015747;28;20470;-85
2021/03/28 05:13:11;;;;;;;10.60;5.40;;;1.70;97.30;;;;;;5014074;28;20423;-84
2021/03/28 05:16:23;;;;;;;13.90;5.77;;;1.70;97.30;;;;;;5013766;28;20427;-84
2021/03/28 05:19:49;;;;;;;13.07;5.23;;;1.80;97.30;;;;;;5013889;28;20419;-84
2021/03/28 05:23:20;;;;;;;13.30;5.67;;;1.90;97.30;;;;;;4961085;28;20792;-85
2021/03/28 05:26:06;;;;;;;9.23;5.53;;;1.90;97.30;;;;;;4905598;29;20587;-86
2021/03/28 05:28:52;;;;;;;10.33;5.73;;;1.90;97.30;;;;;;4934327;29;20511;-83
2021/03/28 05:31:32;;;;;;;7.30;5.10;;;1.90;97.30;;;;;;5009070;28;20435;-85
2021/03/28 05:34:27;;;;;;;13.70;5.50;;;1.90;97.30;;;;;;5026718;28;20419;-84
2021/03/28 05:37:30;;;;;;;10.87;5.60;;;2.00;97.30;;;;;;5026512;28;20434;-83
2021/03/28 05:40:14;;;;;;;17.83;6.17;;;2.00;97.30;;;;;;5030811;28;20433;-84
2021/03/28 05:42:59;;;;;;;11.97;6.10;;;2.00;97.30;;;;;;5013297;28;20639;-86
2021/03/28 05:45:24;;;;;;;11.67;5.50;;;2.10;97.30;;;;;;5037420;28;20783;-83
2021/03/28 05:47:59;;;;;;;13.07;6.30;;;2.20;97.30;;;;;;5046014;28;20418;-84
2021/03/28 05:51:03;;;;;;;13.73;5.77;;;2.20;97.30;;;;;;5038974;28;20223;-84
2021/03/28 05:53:53;;;;;;;13.23;5.10;;;2.20;97.30;;;;;;5018683;28;20475;-84
2021/03/28 05:56:31;;;;;;;14.67;5.50;;;2.30;97.30;;;;;;5032659;28;20418;-84
2021/03/28 05:59:28;;;;;;;14.10;6.00;;;2.30;97.30;;;;;;5013499;28;20410;-84
2021/03/28 06:02:34;;;;;;;11.20;6.27;;;2.30;97.30;;;;;;5013514;28;20435;-82
2021/03/28 06:05:13;;;;;;;13.17;5.90;;;2.40;97.30;;;;;;5019015;28;20431;-84
2021/03/28 06:07:39;;;;;;;7.90;5.00;;;2.50;97.30;;;;;;5022816;28;20507;-84
2021/03/28 06:12:36;;;;;;;7.83;5.20;;;2.70;97.30;;;;;;5033126;28;20217;-71
2021/03/28 06:15:20;;;;;;;9.07;5.50;;;2.80;97.30;;;;;;5034395;28;20772;-71
2021/03/28 06:18:19;;;;;;;9.90;5.23;;;3.00;97.30;;;;;;5034443;28;20983;-69
2021/03/28 06:20:57;;;;;;;7.20;4.97;;;3.20;97.30;;;;;;5033808;28;20423;-71
2021/03/28 06:23:51;;;;;;;8.27;4.80;;;3.40;97.30;;;;;;5034078;28;20780;-69
2021/03/28 06:27:04;;;;;;;9.60;5.00;;;3.60;97.30;;;;;;5033774;28;20438;-70
2021/03/28 06:29:48;;;;;;;15.60;5.67;;;3.80;97.30;;;;;;5014242;28;20999;-69
2021/03/28 06:32:35;;;;;;;12.10;5.63;;;4.00;97.30;;;;;;5026131;28;20440;-69
2021/03/28 06:35:38;;;;;;;8.03;5.10;;;4.10;97.30;;;;;;5031368;28;20407;-70
2021/03/28 06:38:17;;;;;;;8.70;5.00;;;4.10;97.30;;;;;;5016142;28;20415;-69
2021/03/28 06:41:03;;;;;;;15.70;5.17;;;4.10;97.30;;;;;;5005082;28;20445;-69
2021/03/28 06:43:43;;;;;;;13.70;5.70;;;4.10;97.30;;;;;;5010603;28;20415;-68
2021/03/28 06:46:44;;;;;;;10.43;6.00;;;4.20;97.30;;;;;;5033483;28;20557;-70
2021/03/28 06:49:31;;;;;;;9.97;4.70;;;4.20;97.30;;;;;;4995799;28;20931;-70
2021/03/28 06:52:22;;;;;;;10.90;5.60;;;4.30;97.30;;;;;;5000381;28;20463;-70
2021/03/28 06:55:15;;;;;;;7.50;4.90;;;4.30;97.30;;;;;;5015517;28;20465;-68
2021/03/28 06:57:56;;;;;;;14.10;5.20;;;4.30;97.30;;;;;;5014887;28;20443;-70
2021/03/28 07:00:27;;;;;;;10.47;4.90;;;4.40;97.30;;;;;;5015441;28;20461;-70
2021/03/28 07:03:34;;;;;;;13.03;4.83;;;4.50;97.30;;;;;;5015757;28;20438;-71
2021/03/28 07:06:18;;;;;;;15.00;5.57;;;4.60;97.30;;;;;;5006902;28;20423;-71
2021/03/28 07:09:09;;;;;;;8.83;5.33;;;4.60;97.30;;;;;;5015468;28;20811;-70
2021/03/28 07:12:19;;;;;;;12.93;4.43;;;4.70;97.30;;;;;;5009830;28;20468;-70
2021/03/28 07:15:23;;;;;;;11.43;5.10;;;4.90;97.30;;;;;;5015189;28;20415;-71
2021/03/28 07:18:06;;;;;;;8.03;4.80;;;5.00;97.30;;;;;;5027232;28;20411;-70
2021/03/28 07:21:05;;;;;;;11.20;5.20;;;5.10;97.30;;;;;;5012364;28;20417;-71
2021/03/28 07:24:06;;;;;;;9.50;5.07;;;5.20;97.30;;;;;;4985329;28;20512;-69
2021/03/28 07:26:55;;;;;;;17.90;6.03;;;5.40;97.30;;;;;;5014068;28;20449;-72
2021/03/28 07:30:11;;;;;;;8.10;4.83;;;5.50;97.30;;;;;;5032931;28;20447;-72
2021/03/28 07:32:52;;;;;;;6.90;4.37;;;5.70;97.30;;;;;;5033056;28;20501;-69
2021/03/28 07:35:18;;;;;;;13.23;5.13;;;5.80;97.30;;;;;;5015699;28;20407;-71
2021/03/28 07:38:22;;;;;;;12.53;5.17;;;5.90;97.30;;;;;;5033273;28;20462;-71
2021/03/28 07:41:25;;;;;;;10.83;5.30;;;6.00;97.30;;;;;;5029095;28;20207;-72
2021/03/28 07:44:09;;;;;;;8.63;4.90;;;6.10;97.30;;;;;;5028436;28;20461;-71
2021/03/28 07:46:58;;;;;;;13.73;5.77;;;6.20;97.30;;;;;;5029118;28;20618;-71
2021/03/28 07:49:53;;;;;;;18.60;5.30;;;6.30;97.30;;;;;;5025458;28;20897;-70
2021/03/28 07:53:00;;;;;;;5.63;4.00;;;6.40;97.30;;;;;;5016835;28;20434;-72
2021/03/28 07:55:30;;;;;;;14.97;5.20;;;6.50;97.30;;;;;;4995929;23;20492;-72
2021/03/28 07:58:14;;;;;;;9.20;5.03;;;6.50;97.30;;;;;;5042269;28;20433;-72
2021/03/28 08:01:16;;;;;;;9.33;5.20;;;6.60;97.30;;;;;;5071485;28;20706;-69
2021/03/28 08:04:03;;;;;;;12.83;5.80;;;6.60;97.30;;;;;;5071971;28;20805;-72
2021/03/28 08:06:54;;;;;;;11.23;5.10;;;6.80;97.30;;;;;;5071711;28;20904;-69
2021/03/28 08:09:53;;;;;;;16.77;4.83;;;7.00;97.30;;;;;;5053680;28;20481;-70
2021/03/28 08:12:41;;;;;;;11.27;4.80;;;7.10;97.30;;;;;;5071605;28;20425;-71
2021/03/28 08:15:19;;;;;;;11.43;5.13;;;7.30;97.30;;;;;;5071649;28;20402;-72
2021/03/28 08:18:13;;;;;;;12.33;5.80;;;7.60;97.30;;;;;;5071526;28;20774;-69
2021/03/28 08:21:16;;;;;;;15.57;5.87;;;7.70;97.30;;;;;;5053763;28;20858;-71
2021/03/28 08:23:50;;;;;;;11.83;5.03;;;7.70;97.30;;;;;;5071364;28;20439;-72
2021/03/28 08:26:15;;;;;;;13.00;5.07;;;7.70;97.30;;;;;;5053152;28;20440;-72
2021/03/28 08:29:11;;;;;;;11.90;5.97;;;7.80;97.30;;;;;;5053514;28;20503;-71
2021/03/28 08:32:13;;;;;;;12.27;6.20;;;7.90;97.30;;;;;;5071827;28;20249;-69
2021/03/28 08:35:00;;;;;;;12.33;5.37;;;8.00;97.30;;;;;;5053852;28;20414;-72
2021/03/28 08:37:59;;;;;;;12.80;5.13;;;8.10;96.60;;;;;;5053519;28;20466;-71
2021/03/28 08:40:43;;;;;;;10.93;4.70;;;8.20;96.20;;;;;;5053571;28;20502;-69
2021/03/28 08:43:30;;;;;;;13.07;5.47;;;8.30;96.20;;;;;;5071743;28;20390;-70
2021/03/28 08:46:17;;;;;;;7.40;4.00;;;8.40;96.10;;;;;;5053334;28;20441;-70
2021/03/28 08:49:24;;;;;;;9.93;4.80;;;8.40;94.50;;;;;;5053317;28;20554;-70
2021/03/28 08:52:27;;;;;;;12.93;5.17;;;8.50;96.10;;;;;;5053334;28;20436;-69
2021/03/28 08:55:12;;;;;;;13.67;5.40;;;8.50;95.60;;;;;;5071183;28;20440;-69
2021/03/28 08:58:13;;;;;;;13.23;5.40;;;8.50;94.90;;;;;;5070995;28;20417;-70
2021/03/28 09:00:51;;;;;;;11.60;4.90;;;8.60;94.60;;;;;;5048279;28;20422;-69
2021/03/28 09:03:54;;;;;;;14.50;5.07;;;9.00;94.30;;;;;;5053286;28;20397;-70
2021/03/28 09:06:44;;;;;;;10.90;4.83;;;9.20;93.40;;;;;;5035459;28;20410;-69
2021/03/28 09:09:21;;;;;;;6.70;4.20;;;9.30;93.80;;;;;;5031176;28;20490;-70
2021/03/28 09:12:08;;;;;;;12.53;4.40;;;9.50;92.90;;;;;;5031440;28;20441;-70
2021/03/28 09:15:09;;;;;;;10.43;5.30;;;9.50;92.40;;;;;;5031350;28;20488;-72
2021/03/28 09:18:02;;;;;;;12.27;4.90;;;9.60;92.40;;;;;;5013540;28;20411;-72
2021/03/28 09:20:59;;;;;;;9.90;4.43;;;9.50;92.20;;;;;;5017974;28;20420;-72
2021/03/28 09:24:00;;;;;;;9.90;4.03;;;9.60;92.00;;;;;;5024298;28;20490;-72
2021/03/28 09:26:53;;;;;;;13.03;4.53;;;9.40;91.30;;;;;;5046565;28;20414;-73
2021/03/28 09:29:42;;;;;;;12.93;3.90;;;9.40;92.00;;;;;;5033898;28;20929;-73
2021/03/28 09:32:48;;;;;;;10.00;3.47;;;9.30;91.30;;;;;;5038492;28;20489;-73
2021/03/28 09:35:23;;;;;;;16.50;5.20;;;9.30;92.30;;;;;;5046739;28;20915;-73
2021/03/28 09:38:12;;;;;;;13.13;4.90;;;9.40;92.20;;;;;;5048152;28;20512;-72
2021/03/28 09:40:49;;;;;;;15.27;4.17;;;9.40;91.90;;;;;;5016394;28;20435;-72
2021/03/28 09:43:21;;;;;;;17.80;4.10;;;9.40;91.30;;;;;;5030437;28;20414;-72
2021/03/28 09:46:01;;;;;;;15.03;5.10;;;9.50;91.70;;;;;;5031753;28;20464;-72
2021/03/28 09:48:45;;;;;;;9.77;3.93;;;9.50;91.90;;;;;;5029919;28;20459;-73
2021/03/28 09:51:49;;;;;;;13.10;4.47;;;9.40;90.80;;;;;;5047399;28;20449;-72
2021/03/28 09:54:35;;;;;;;15.73;4.40;;;9.50;91.40;;;;;;5034383;28;20491;-72
2021/03/28 09:57:37;;;;;;;10.47;4.43;;;9.80;91.70;;;;;;5050634;28;20454;-73
2021/03/28 10:00:27;;;;;;;6.47;3.30;;;9.80;90.10;;;;;;5032581;28;20429;-72
2021/03/28 10:02:59;;;;;;;11.23;4.90;;;9.80;90.10;;;;;;5050308;28;20399;-73
2021/03/28 10:05:28;;;;;;;10.50;4.57;;;9.90;90.20;;;;;;5050372;28;20785;-73
2021/03/28 10:08:08;;;;;;;19.43;4.33;;;10.00;89.30;;;;;;5032383;28;20414;-72
2021/03/28 10:10:40;;;;;;;8.03;3.87;;;10.10;89.50;;;;;;5032329;28;20583;-74
2021/03/28 10:13:05;;;;;;;10.73;3.80;;;10.30;88.90;;;;;;5032434;28;20513;-70
2021/03/28 10:16:15;;;;;;;17.47;3.70;;;10.30;89.00;;;;;;5047233;28;20577;-71
2021/03/28 10:19:05;;;;;;;16.37;4.67;;;10.50;88.70;;;;;;5019094;28;20176;-72
2021/03/28 10:21:57;;;;;;;10.83;3.60;;;10.70;88.10;;;;;;5034389;28;20475;-73
2021/03/28 10:24:47;;;;;;;8.57;3.67;;;10.60;87.40;;;;;;5027121;28;20450;-73
2021/03/28 10:27:41;;;;;;;8.70;4.00;;;10.60;87.80;;;;;;5016344;28;20435;-73
2021/03/28 10:30:43;;;;;;;8.87;3.40;;;10.60;87.90;;;;;;5029313;28;20465;-73
2021/03/28 10:33:41;;;;;;;9.63;3.93;;;10.80;88.40;;;;;;5012035;28;20947;-73
2021/03/28 10:36:45;;;;;;;11.17;3.60;;;10.80;87.40;;;;;;5013030;28;20955;-72
2021/03/28 10:39:13;;;;;;;14.10;3.87;;;10.80;88.20;;;;;;5041046;28;20441;-70
2021/03/28 10:41:44;;;;;;;8.73;4.20;;;10.80;87.90;;;;;;5035191;28;20442;-71
2021/03/28 10:44:25;;;;;;;7.00;3.43;;;10.80;88.40;;;;;;5029852;28;20491;-71
2021/03/28 10:47:12;;;;;;;12.43;3.77;;;10.70;87.80;;;;;;5029899;28;20414;-71
2021/03/28 10:50:12;;;;;;;7.50;3.77;;;10.60;88.20;;;;;;5011615;28;20454;-73
2021/03/28 10:52:43;;;;;;;9.73;4.70;;;10.70;89.00;;;;;;5033016;28;20947;-73
2021/03/28 10:55:47;;;;;;;7.63;4.30;;;10.70;88.70;;;;;;5033037;28;20454;-74
2021/03/28 10:58:31;;;;;;;10.53;4.00;;;10.90;89.00;;;;;;5032722;28;20492;-73
2021/03/28 11:01:31;;;;;;;24.50;3.87;;;11.10;89.00;;;;;;5033395;28;20923;-74
2021/03/28 11:04:15;;;;;;;7.87;3.57;;;11.10;89.00;;;;;;5015411;28;20411;-72
2021/03/28 11:07:07;;;;;;;12.70;4.90;;;11.10;88.20;;;;;;5032899;28;20506;-72
2021/03/28 11:09:43;;;;;;;12.30;3.60;;;11.00;88.50;;;;;;5011668;28;20469;-73
2021/03/28 11:12:26;;;;;;;5.97;3.40;;;11.00;88.40;;;;;;5020567;28;20451;-72
2021/03/28 11:15:24;;;;;;;7.20;3.17;;;11.00;88.20;;;;;;5014684;28;20454;-73
2021/03/28 11:18:12;;;;;;;8.50;3.77;;;11.10;88.30;;;;;;5014308;28;20428;-74
2021/03/28 11:20:58;;;;;;;6.30;3.33;;;11.10;87.60;;;;;;5014109;28;20465;-73
2021/03/28 11:24:17;;;;;;;5.90;3.30;;;11.10;87.50;;;;;;5014570;28;20960;-73
2021/03/28 11:26:48;;;;;;;6.80;3.07;;;11.00;87.60;;;;;;5026943;28;20499;-73
2021/03/28 11:29:48;;;;;;;8.80;3.43;;;10.90;87.50;;;;;;5041454;28;20472;-73
2021/03/28 11:32:43;;;;;;;10.23;3.97;;;11.40;87.60;;;;;;5031576;28;20454;-72
2021/03/28 11:35:09;;;;;;;8.57;4.30;;;11.60;86.70;;;;;;4989997;28;20423;-73
2021/03/28 11:37:52;;;;;;;11.07;4.00;;;11.40;86.80;;;;;;5034647;28;20927;-73
2021/03/28 11:40:47;;;;;;;6.13;3.40;;;11.40;86.80;;;;;;5050894;28;20172;-74
2021/03/28 11:43:23;;;;;;;9.03;4.17;;;11.20;87.30;;;;;;5029103;28;20422;-73
2021/03/28 11:46:32;;;;;;;9.87;4.30;;;11.30;87.90;;;;;;5022216;28;20424;-74
2021/03/28 11:48:57;;;;;;;10.47;4.27;;;11.30;87.30;;;;;;5044501;28;20837;-73
2021/03/28 11:51:35;;;;;;;13.90;3.87;;;11.40;87.70;;;;;;5041078;28;20439;-71
2021/03/28 11:54:23;;;;;;;11.57;3.70;;;11.40;87.80;;;;;;5042608;28;20184;-72
2021/03/28 11:57:26;;;;;;;8.73;3.90;;;11.20;87.90;;;;;;5046006;28;20462;-74
2021/03/28 11:59:54;;;;;;;9.77;3.77;;;10.90;88.30;;;;;;5020718;28;20782;-73
2021/03/28 12:02:22;;;;;;;8.40;3.50;;;10.70;88.60;;;;;;5032071;28;21072;-74
2021/03/28 12:04:51;;;;;;;10.37;4.40;;;10.70;89.00;;;;;;5056059;28;20993;-73
2021/03/28 12:07:28;;;;;;;10.20;4.20;;;10.60;89.40;;;;;;5051835;28;20414;-73
2021/03/28 12:09:59;;;;;;;14.47;4.40;;;10.70;90.00;;;;;;5033410;28;20457;-73
2021/03/28 12:12:40;;;;;;;8.40;4.87;;;10.70;89.60;;;;;;5032789;28;20442;-73
2021/03/28 12:15:46;;;;;;;12.67;5.10;;;10.70;90.20;;;;;;5033267;28;20422;-74
2021/03/28 12:18:40;;;;;;;15.00;4.77;;;10.60;89.60;;;;;;5033339;28;20414;-73
2021/03/28 12:21:11;;;;;;;11.03;4.70;;;10.60;90.30;;;;;;5031654;28;20438;-72
2021/03/28 12:23:42;;;;;;;7.80;3.50;;;10.70;89.70;;;;;;5018953;28;20415;-71
2021/03/28 12:26:31;;;;;;;13.93;4.20;;;10.80;89.70;;;;;;5029399;28;20436;-71
2021/03/28 12:29:11;;;;;;;8.93;4.10;;;10.80;89.70;;;;;;5035810;28;20462;-72
2021/03/28 12:31:40;;;;;;;10.17;3.77;;;10.80;89.50;;;;;;5022749;28;20475;-72
2021/03/28 12:34:05;;;;;;;11.00;4.40;;;11.00;89.30;;;;;;5023269;28;20540;-73
2021/03/28 12:36:52;;;;;;;8.10;3.07;;;11.00;89.30;;;;;;5042471;28;20912;-73
2021/03/28 12:39:27;;;;;;;11.33;4.07;;;11.20;89.60;;;;;;5038115;28;20590;-73
2021/03/28 12:42:02;;;;;;;15.80;5.73;;;11.40;89.40;;;;;;5038153;28;20442;-71
2021/03/28 12:44:33;;;;;;;9.07;4.00;;;11.50;89.30;;;;;;5021076;28;20864;-71
2021/03/28 12:47:15;;;;;;;8.53;3.90;;;11.70;89.00;;;;;;5041008;28;20857;-71
2021/03/28 12:50:21;;;;;;;9.47;4.33;;;11.80;88.10;;;;;;5020224;28;20449;-71
2021/03/28 12:53:12;;;;;;;8.00;4.10;;;12.00;88.00;;;;;;5016677;28;20426;-71
2021/03/28 12:55:47;;;;;;;9.87;4.10;;;12.20;87.60;;;;;;5042333;28;20450;-71
2021/03/28 12:58:17;;;;;;;8.63;3.70;;;12.30;87.60;;;;;;5034831;28;20453;-73
2021/03/28 13:00:52;;;;;;;12.93;4.27;;;12.60;87.00;;;;;;5065395;28;20438;-71
2021/03/28 13:03:47;;;;;;;8.50;4.47;;;12.80;86.60;;;;;;5070496;28;20459;-72
2021/03/28 13:06:31;;;;;;;9.03;3.83;;;12.90;85.90;;;;;;5067813;28;20445;-72
2021/03/28 13:09:23;;;;;;;11.83;4.20;;;13.40;85.40;;;;;;5052705;28;20503;-72
2021/03/28 13:11:57;;;;;;;7.40;4.17;;;13.80;84.40;;;;;;5047980;28;20434;-72
2021/03/28 13:14:37;;;;;;;7.30;4.53;;;13.70;83.80;;;;;;5052010;28;20433;-72
2021/03/28 13:17:15;;;;;;;14.77;4.83;;;13.20;84.60;;;;;;5052333;28;20913;-71
2021/03/28 13:19:54;;;;;;;10.20;4.90;;;13.00;85.70;;;;;;5070705;28;20946;-72
2021/03/28 13:22:47;;;;;;;8.83;4.63;;;12.70;85.90;;;;;;5052288;28;20486;-71
2021/03/28 13:25:16;;;;;;;7.00;4.30;;;12.60;86.80;;;;;;5052597;28;20941;-72
2021/03/28 13:27:43;;;;;;;8.80;4.40;;;12.80;87.00;;;;;;5052491;28;20421;-71
2021/03/28 13:30:18;;;;;;;6.57;3.80;;;12.90;87.00;;;;;;5070304;28;20456;-72
2021/03/28 13:32:47;;;;;;;9.87;4.27;;;12.80;85.40;;;;;;5052661;28;20413;-72
2021/03/28 13:35:35;;;;;;;9.40;4.50;;;12.80;86.10;;;;;;5052322;28;20785;-72
2021/03/28 13:38:32;;;;;;;10.17;4.53;;;12.60;86.80;;;;;;5052470;28;20425;-72
2021/03/28 13:41:30;;;;;;;8.63;4.00;;;12.60;86.80;;;;;;5070060;28;20512;-72
2021/03/28 13:44:18;;;;;;;10.53;4.10;;;12.70;86.90;;;;;;5051800;28;20413;-74
2021/03/28 13:47:02;;;;;;;12.27;4.67;;;12.60;86.60;;;;;;5070702;28;20882;-71
2021/03/28 13:49:42;;;;;;;8.83;4.57;;;12.60;86.20;;;;;;5070066;28;20774;-72
2021/03/28 13:52:16;;;;;;;8.67;3.87;;;12.60;86.60;;;;;;5069813;28;20428;-71
2021/03/28 13:54:46;;;;;;;9.07;4.50;;;12.80;86.50;;;;;;5052468;28;20413;-73
2021/03/28 13:57:16;;;;;;;11.80;3.80;;;13.10;85.60;;;;;;5085752;22;20504;-85
2021/03/28 14:00:05;;;;;;;5.60;3.43;;;13.10;85.00;;;;;;5054042;28;20486;-85
2021/03/28 14:02:37;;;;;;;8.40;4.13;;;13.10;85.00;;;;;;5053860;28;20406;-84
2021/03/28 14:05:11;;;;;;;10.17;4.27;;;13.20;85.30;;;;;;5055250;28;20434;-85
2021/03/28 14:07:44;;;;;;;8.00;4.30;;;13.30;84.50;;;;;;5034599;28;20441;-84
2021/03/28 14:10:17;;;;;;;13.97;4.73;;;13.50;84.80;;;;;;5034275;28;20457;-85
2021/03/28 14:12:53;;;;;;;9.40;4.40;;;13.60;84.70;;;;;;5033931;28;20409;-85
2021/03/28 14:15:26;;;;;;;6.60;4.13;;;13.60;83.60;;;;;;5034407;28;20487;-86
2021/03/28 14:18:12;;;;;;;13.03;3.47;;;13.70;84.00;;;;;;5034133;28;20414;-85
2021/03/28 14:20:42;;;;;;;8.03;3.80;;;14.50;83.30;;;;;;5051770;28;20414;-85
2021/03/28 14:23:10;;;;;;;7.20;3.27;;;15.10;81.40;;;;;;5051709;28;20449;-84
2021/03/28 14:25:47;;;;;;;8.23;3.30;;;15.60;80.50;;;;;;5033502;28;20946;-84
2021/03/28 14:28:25;;;;;;;5.63;3.53;;;15.40;79.70;;;;;;5037513;28;20456;-84
2021/03/28 14:31:09;;;;;;;5.30;3.33;;;15.50;78.90;;;;;;5055978;28;20480;-85
2021/03/28 14:33:53;;;;;;;11.37;4.00;;;15.60;78.70;;;;;;5037838;28;20422;-84
2021/03/28 14:36:22;;;;;;;8.17;3.40;;;15.50;79.00;;;;;;5037452;28;20462;-84
2021/03/28 14:39:16;;;;;;;9.33;3.30;;;14.90;79.40;;;;;;5038136;28;20997;-85
2021/03/28 14:42:23;;;;;;;7.80;2.90;;;14.30;80.40;;;;;;5037969;28;20421;-84
2021/03/28 14:45:06;;;;;;;7.33;3.53;;;14.00;81.30;;;;;;4957515;28;20417;-84
2021/03/28 14:47:47;;;;;;;5.80;3.30;;;13.80;81.50;;;;;;4973964;28;20454;-85
2021/03/28 14:50:56;;;;;;;10.13;3.43;;;13.60;81.90;;;;;;5011838;28;20505;-85
2021/03/28 14:53:41;;;;;;;6.97;3.60;;;13.40;81.80;;;;;;5037782;28;20422;-84
2021/03/28 14:56:23;;;;;;;7.70;3.53;;;13.30;81.90;;;;;;5036974;28;20480;-85